Tombstone, AZ

7:10 AM MST on May 22, 2015 (GMT -0700)
N7BOO | | Change Station
CLOSE
Current Station
Personal Weather Station
Location: Tombstone, AZ
Elevation: 4472 ft
Nearby Weather Stations

Elev 4472 ft 31.73 °N, 110.05 °W | Updated 2 minutes ago

Clear
Clear
62.2 °F
Feels Like 62.2 °F
N
3.4
Wind Variable Wind from SE
Gusts 8.1 mph

Today
High -- | Low -- °F
--% Chance of Precip.
Yesterday
High -- | Low -- °F
Precip. -- in
5:19 AM 7:14 PM
Waxing Crescent, 21% visible
Pressure 29.85 in
Visibility 7.0 miles
Clouds Clear
Dew Point 22 °F
Humidity 21%
Rainfall 0.00 in
Snow Depth Not available.
UV 1 out of 12
Pollen 4.40 out of 12
Air Quality Not available.
Flu Activity Local Activity
METAR KFHU 221358Z 17008KT 140V200 7SM CLR 16/M07 A3003 RMK AO2A SLP108 T01581068 $

More Conditions Fewer Conditions

Pressure 29.85 in
Visibility 7.0 miles
Clouds Clear
Dew Point 22 °F
Humidity 21%
Rainfall 0.00 in
Snow Depth Not available.
UV 1 out of 12
Pollen 4.40 out of 12
Air Quality Not available.
Flu Activity Local Activity
METAR KFHU 221358Z 17008KT 140V200 7SM CLR 16/M07 A3003 RMK AO2A SLP108 T01581068 $

More Conditions Fewer Conditions

10-Day Weather Forecast

Almanac

Astronomy

May. 22, 2015 Rise Set
Actual Time
Civil Twilight
Nautical Twilight
Astronomical Twilight
Moon
Length of Visible Light
Length of Day
Tomorrow will be .
, % of the Moon is Illuminated

Today's Extremes

State Highs State Lows

Community

WunderPhotos

Upload Photos

1,823,225 photos uploaded!

WunderBlogs® & News

Nearby

Air Quality

  Air Quality AQ Index Pollutant
Not available.

Snow Depth

Station Depth Elevation

Earthquake Activity

City Distance Mag. Time & Date
Minimum magnitude displayed is 2.5.

Coastal Water Temperatures

Place Temperature

Stations

Nearby Weather Stations

Station Location Temp. Windchill Dew Point Humidity Wind Precip. Elev Updated Type